Lakeville, California
Current Conditions -  °F | °C
As of 8:55 PM on Saturday 22 Nov 2014 (Local Time) from KO69 Reporting Station
Clear Clear  
Wind Chill: 54°   Ceiling: Unl
Heat Index: 54°   Visibility: 10mi
Dew Point: 46°   Wind: 7mph
Humidity: 77%   Direction: 300°WNW
Pressure: 30.25"   Gusts: NA
Location:  38.2181°N, 122.773°W
Report Text: KO69 230455Z AUTO 30006KT 10SM CLR 12/08 A3025 RMK AO1
Loading
Personal Weather Stations






























Interactive Weather Map New forecast layout! Learn more

10-Day Weather Forecast

Advertisements
Track Severe Weather on mobile